sensor_id;sensor_type;location;lat;lon;timestamp;P1;durP1;ratioP1;P2;durP2;ratioP2
63693;SDS011;49839;51.798;10.954;2022-11-30T00:00:55;218.57;;;16.27;;
63693;SDS011;49839;51.798;10.954;2022-11-30T00:03:23;243.85;;;16.15;;
63693;SDS011;49839;51.798;10.954;2022-11-30T00:05:51;181.05;;;15.40;;
63693;SDS011;49839;51.798;10.954;2022-11-30T00:08:19;229.70;;;16.85;;
63693;SDS011;49839;51.798;10.954;2022-11-30T00:10:47;229.93;;;15.45;;
63693;SDS011;49839;51.798;10.954;2022-11-30T00:13:15;187.93;;;17.13;;
63693;SDS011;49839;51.798;10.954;2022-11-30T00:15:42;135.18;;;15.93;;
63693;SDS011;49839;51.798;10.954;2022-11-30T00:18:10;190.55;;;15.25;;
63693;SDS011;49839;51.798;10.954;2022-11-30T00:20:37;255.18;;;16.40;;
63693;SDS011;49839;51.798;10.954;2022-11-30T00:23:04;228.77;;;17.38;;
63693;SDS011;49839;51.798;10.954;2022-11-30T00:25:35;242.05;;;20.45;;
63693;SDS011;49839;51.798;10.954;2022-11-30T00:28:04;257.17;;;17.08;;
63693;SDS011;49839;51.798;10.954;2022-11-30T00:30:31;283.00;;;16.20;;
63693;SDS011;49839;51.798;10.954;2022-11-30T00:32:59;262.85;;;16.90;;
63693;SDS011;49839;51.798;10.954;2022-11-30T00:35:26;274.48;;;17.52;;
63693;SDS011;49839;51.798;10.954;2022-11-30T00:37:53;277.27;;;17.38;;
63693;SDS011;49839;51.798;10.954;2022-11-30T00:40:21;199.13;;;16.58;;
63693;SDS011;49839;51.798;10.954;2022-11-30T00:42:48;170.48;;;16.33;;
63693;SDS011;49839;51.798;10.954;2022-11-30T00:45:17;146.60;;;14.70;;
63693;SDS011;49839;51.798;10.954;2022-11-30T00:47:44;130.23;;;14.85;;
63693;SDS011;49839;51.798;10.954;2022-11-30T00:50:12;98.40;;;14.90;;
63693;SDS011;49839;51.798;10.954;2022-11-30T00:52:39;99.18;;;14.45;;
63693;SDS011;49839;51.798;10.954;2022-11-30T00:55:07;121.47;;;15.07;;
63693;SDS011;49839;51.798;10.954;2022-11-30T00:57:34;200.88;;;15.32;;
63693;SDS011;49839;51.798;10.954;2022-11-30T01:00:02;165.40;;;14.45;;
63693;SDS011;49839;51.798;10.954;2022-11-30T01:02:31;157.07;;;14.85;;
63693;SDS011;49839;51.798;10.954;2022-11-30T01:04:58;98.45;;;14.25;;
63693;SDS011;49839;51.798;10.954;2022-11-30T01:07:26;193.57;;;15.75;;
63693;SDS011;49839;51.798;10.954;2022-11-30T01:09:53;165.57;;;16.25;;
63693;SDS011;49839;51.798;10.954;2022-11-30T01:12:21;151.68;;;16.25;;
63693;SDS011;49839;51.798;10.954;2022-11-30T01:14:48;152.15;;;15.85;;
63693;SDS011;49839;51.798;10.954;2022-11-30T01:17:16;167.00;;;14.77;;
63693;SDS011;49839;51.798;10.954;2022-11-30T01:19:44;163.25;;;15.90;;
63693;SDS011;49839;51.798;10.954;2022-11-30T01:22:12;201.68;;;15.77;;
63693;SDS011;49839;51.798;10.954;2022-11-30T01:24:39;124.18;;;15.45;;
63693;SDS011;49839;51.798;10.954;2022-11-30T01:27:07;90.40;;;14.63;;
63693;SDS011;49839;51.798;10.954;2022-11-30T01:29:34;158.13;;;15.15;;
63693;SDS011;49839;51.798;10.954;2022-11-30T01:32:01;131.45;;;15.30;;
63693;SDS011;49839;51.798;10.954;2022-11-30T01:34:29;145.77;;;14.73;;
63693;SDS011;49839;51.798;10.954;2022-11-30T01:36:58;205.63;;;16.80;;
63693;SDS011;49839;51.798;10.954;2022-11-30T01:39:25;239.52;;;17.70;;
63693;SDS011;49839;51.798;10.954;2022-11-30T01:41:53;118.38;;;14.63;;
63693;SDS011;49839;51.798;10.954;2022-11-30T01:47:19;112.38;;;15.23;;
63693;SDS011;49839;51.798;10.954;2022-11-30T01:49:48;156.55;;;15.57;;
63693;SDS011;49839;51.798;10.954;2022-11-30T01:54:46;150.68;;;14.95;;
63693;SDS011;49839;51.798;10.954;2022-11-30T01:57:18;147.48;;;14.10;;
63693;SDS011;49839;51.798;10.954;2022-11-30T01:59:48;166.95;;;14.77;;
63693;SDS011;49839;51.798;10.954;2022-11-30T02:04:45;129.50;;;13.85;;
63693;SDS011;49839;51.798;10.954;2022-11-30T02:07:13;120.90;;;13.25;;
63693;SDS011;49839;51.798;10.954;2022-11-30T02:09:41;123.95;;;13.50;;
63693;SDS011;49839;51.798;10.954;2022-11-30T02:12:14;119.68;;;13.55;;
63693;SDS011;49839;51.798;10.954;2022-11-30T02:14:46;133.57;;;14.38;;
63693;SDS011;49839;51.798;10.954;2022-11-30T02:17:16;75.40;;;13.50;;
63693;SDS011;49839;51.798;10.954;2022-11-30T02:20:00;145.52;;;16.15;;
63693;SDS011;49839;51.798;10.954;2022-11-30T02:22:37;141.95;;;14.15;;
63693;SDS011;49839;51.798;10.954;2022-11-30T02:25:09;95.70;;;14.85;;
63693;SDS011;49839;51.798;10.954;2022-11-30T02:27:50;119.95;;;14.98;;
63693;SDS011;49839;51.798;10.954;2022-11-30T02:30:24;84.47;;;13.80;;
63693;SDS011;49839;51.798;10.954;2022-11-30T02:32:52;96.25;;;14.18;;
63693;SDS011;49839;51.798;10.954;2022-11-30T02:35:24;137.68;;;13.13;;
63693;SDS011;49839;51.798;10.954;2022-11-30T02:37:53;79.63;;;12.60;;
63693;SDS011;49839;51.798;10.954;2022-11-30T02:40:20;108.13;;;13.88;;
63693;SDS011;49839;51.798;10.954;2022-11-30T02:42:48;136.60;;;13.48;;
63693;SDS011;49839;51.798;10.954;2022-11-30T02:45:17;217.10;;;14.98;;
63693;SDS011;49839;51.798;10.954;2022-11-30T02:47:49;162.02;;;13.95;;
63693;SDS011;49839;51.798;10.954;2022-11-30T02:50:20;202.57;;;14.57;;
63693;SDS011;49839;51.798;10.954;2022-11-30T02:52:48;135.77;;;13.30;;
63693;SDS011;49839;51.798;10.954;2022-11-30T02:55:16;235.55;;;14.65;;
63693;SDS011;49839;51.798;10.954;2022-11-30T02:57:44;155.13;;;13.45;;
63693;SDS011;49839;51.798;10.954;2022-11-30T03:00:12;235.95;;;13.68;;
63693;SDS011;49839;51.798;10.954;2022-11-30T03:02:40;191.40;;;14.07;;
63693;SDS011;49839;51.798;10.954;2022-11-30T03:05:09;177.68;;;14.70;;
63693;SDS011;49839;51.798;10.954;2022-11-30T03:07:36;97.90;;;13.90;;
63693;SDS011;49839;51.798;10.954;2022-11-30T03:10:04;136.57;;;14.30;;
63693;SDS011;49839;51.798;10.954;2022-11-30T03:12:32;126.03;;;14.35;;
63693;SDS011;49839;51.798;10.954;2022-11-30T03:14:59;157.65;;;14.52;;
63693;SDS011;49839;51.798;10.954;2022-11-30T03:17:26;130.85;;;13.77;;
63693;SDS011;49839;51.798;10.954;2022-11-30T03:19:54;78.18;;;12.02;;
63693;SDS011;49839;51.798;10.954;2022-11-30T03:22:23;164.77;;;14.60;;
63693;SDS011;49839;51.798;10.954;2022-11-30T03:24:50;85.75;;;13.32;;
63693;SDS011;49839;51.798;10.954;2022-11-30T03:27:18;83.80;;;14.02;;
63693;SDS011;49839;51.798;10.954;2022-11-30T03:29:45;79.68;;;13.00;;
63693;SDS011;49839;51.798;10.954;2022-11-30T03:32:12;91.72;;;13.77;;
63693;SDS011;49839;51.798;10.954;2022-11-30T03:34:40;52.17;;;13.13;;
63693;SDS011;49839;51.798;10.954;2022-11-30T03:37:07;92.43;;;13.20;;
63693;SDS011;49839;51.798;10.954;2022-11-30T03:39:36;73.55;;;12.35;;
63693;SDS011;49839;51.798;10.954;2022-11-30T03:42:04;70.43;;;13.00;;
63693;SDS011;49839;51.798;10.954;2022-11-30T03:44:31;30.48;;;13.02;;
63693;SDS011;49839;51.798;10.954;2022-11-30T03:46:58;26.63;;;12.32;;
63693;SDS011;49839;51.798;10.954;2022-11-30T03:49:26;37.53;;;12.82;;
63693;SDS011;49839;51.798;10.954;2022-11-30T03:51:53;34.30;;;11.90;;
63693;SDS011;49839;51.798;10.954;2022-11-30T03:54:21;48.22;;;12.32;;
63693;SDS011;49839;51.798;10.954;2022-11-30T03:56:49;23.63;;;12.18;;
63693;SDS011;49839;51.798;10.954;2022-11-30T03:59:17;59.35;;;12.45;;
63693;SDS011;49839;51.798;10.954;2022-11-30T04:01:44;47.38;;;12.40;;
63693;SDS011;49839;51.798;10.954;2022-11-30T04:04:12;36.50;;;12.98;;
63693;SDS011;49839;51.798;10.954;2022-11-30T04:06:39;42.50;;;12.70;;
63693;SDS011;49839;51.798;10.954;2022-11-30T04:09:07;69.68;;;13.02;;
63693;SDS011;49839;51.798;10.954;2022-11-30T04:11:34;44.72;;;12.95;;
63693;SDS011;49839;51.798;10.954;2022-11-30T04:14:03;41.40;;;12.70;;
63693;SDS011;49839;51.798;10.954;2022-11-30T04:16:31;62.30;;;14.00;;
63693;SDS011;49839;51.798;10.954;2022-11-30T04:18:58;77.43;;;13.77;;
63693;SDS011;49839;51.798;10.954;2022-11-30T04:21:26;63.72;;;12.63;;
63693;SDS011;49839;51.798;10.954;2022-11-30T04:23:53;52.58;;;13.27;;
63693;SDS011;49839;51.798;10.954;2022-11-30T04:26:20;77.57;;;14.43;;
63693;SDS011;49839;51.798;10.954;2022-11-30T04:28:48;85.78;;;14.35;;
63693;SDS011;49839;51.798;10.954;2022-11-30T04:31:17;72.93;;;14.73;;
63693;SDS011;49839;51.798;10.954;2022-11-30T04:33:44;73.28;;;13.85;;
63693;SDS011;49839;51.798;10.954;2022-11-30T04:36:14;66.38;;;13.93;;
63693;SDS011;49839;51.798;10.954;2022-11-30T04:38:43;86.88;;;13.35;;
63693;SDS011;49839;51.798;10.954;2022-11-30T04:41:11;95.40;;;14.48;;
63693;SDS011;49839;51.798;10.954;2022-11-30T04:43:38;75.07;;;13.55;;
63693;SDS011;49839;51.798;10.954;2022-11-30T04:46:06;85.97;;;13.63;;
63693;SDS011;49839;51.798;10.954;2022-11-30T04:48:35;87.43;;;15.40;;
63693;SDS011;49839;51.798;10.954;2022-11-30T04:51:03;104.90;;;14.80;;
63693;SDS011;49839;51.798;10.954;2022-11-30T04:53:31;103.60;;;13.77;;
63693;SDS011;49839;51.798;10.954;2022-11-30T04:56:02;68.57;;;13.32;;
63693;SDS011;49839;51.798;10.954;2022-11-30T04:58:30;53.65;;;13.82;;
63693;SDS011;49839;51.798;10.954;2022-11-30T05:00:58;133.10;;;14.32;;
63693;SDS011;49839;51.798;10.954;2022-11-30T05:03:25;81.82;;;14.93;;
63693;SDS011;49839;51.798;10.954;2022-11-30T05:05:54;46.72;;;13.55;;
63693;SDS011;49839;51.798;10.954;2022-11-30T05:08:21;100.05;;;14.68;;
63693;SDS011;49839;51.798;10.954;2022-11-30T05:10:50;66.88;;;14.32;;
63693;SDS011;49839;51.798;10.954;2022-11-30T05:13:18;62.92;;;14.77;;
63693;SDS011;49839;51.798;10.954;2022-11-30T05:15:46;64.40;;;14.68;;
63693;SDS011;49839;51.798;10.954;2022-11-30T05:18:13;69.53;;;13.73;;
63693;SDS011;49839;51.798;10.954;2022-11-30T05:20:45;82.90;;;13.50;;
63693;SDS011;49839;51.798;10.954;2022-11-30T05:23:14;85.65;;;14.02;;
63693;SDS011;49839;51.798;10.954;2022-11-30T05:25:42;103.63;;;13.77;;
63693;SDS011;49839;51.798;10.954;2022-11-30T05:28:09;107.82;;;14.15;;
63693;SDS011;49839;51.798;10.954;2022-11-30T05:30:37;76.78;;;14.38;;
63693;SDS011;49839;51.798;10.954;2022-11-30T05:33:05;48.25;;;13.50;;
63693;SDS011;49839;51.798;10.954;2022-11-30T05:35:33;40.17;;;13.38;;
63693;SDS011;49839;51.798;10.954;2022-11-30T05:38:01;40.58;;;13.27;;
63693;SDS011;49839;51.798;10.954;2022-11-30T05:40:30;56.55;;;14.40;;
63693;SDS011;49839;51.798;10.954;2022-11-30T05:42:59;58.65;;;12.82;;
63693;SDS011;49839;51.798;10.954;2022-11-30T05:45:27;67.32;;;13.65;;
63693;SDS011;49839;51.798;10.954;2022-11-30T05:47:54;40.38;;;13.93;;
63693;SDS011;49839;51.798;10.954;2022-11-30T05:50:22;56.20;;;13.43;;
63693;SDS011;49839;51.798;10.954;2022-11-30T05:52:51;42.70;;;13.68;;
63693;SDS011;49839;51.798;10.954;2022-11-30T05:55:18;66.20;;;13.73;;
63693;SDS011;49839;51.798;10.954;2022-11-30T05:57:47;33.28;;;13.20;;
63693;SDS011;49839;51.798;10.954;2022-11-30T06:00:15;77.25;;;13.57;;
63693;SDS011;49839;51.798;10.954;2022-11-30T06:02:42;84.43;;;14.00;;
63693;SDS011;49839;51.798;10.954;2022-11-30T06:05:10;53.13;;;13.95;;
63693;SDS011;49839;51.798;10.954;2022-11-30T06:07:38;56.97;;;14.07;;
63693;SDS011;49839;51.798;10.954;2022-11-30T06:10:06;59.25;;;14.20;;
63693;SDS011;49839;51.798;10.954;2022-11-30T06:12:34;78.85;;;16.73;;
63693;SDS011;49839;51.798;10.954;2022-11-30T06:15:03;130.77;;;14.82;;
63693;SDS011;49839;51.798;10.954;2022-11-30T06:17:31;77.93;;;14.65;;
63693;SDS011;49839;51.798;10.954;2022-11-30T06:19:58;70.78;;;15.05;;
63693;SDS011;49839;51.798;10.954;2022-11-30T06:22:26;79.15;;;13.55;;
63693;SDS011;49839;51.798;10.954;2022-11-30T06:24:53;88.72;;;14.13;;
63693;SDS011;49839;51.798;10.954;2022-11-30T06:27:21;78.88;;;13.25;;
63693;SDS011;49839;51.798;10.954;2022-11-30T06:29:48;101.68;;;13.32;;
63693;SDS011;49839;51.798;10.954;2022-11-30T06:32:17;82.63;;;15.52;;
63693;SDS011;49839;51.798;10.954;2022-11-30T06:34:44;69.35;;;15.80;;
63693;SDS011;49839;51.798;10.954;2022-11-30T06:37:12;46.33;;;15.40;;
63693;SDS011;49839;51.798;10.954;2022-11-30T06:39:40;53.15;;;15.15;;
63693;SDS011;49839;51.798;10.954;2022-11-30T06:42:27;54.45;;;13.73;;
63693;SDS011;49839;51.798;10.954;2022-11-30T06:44:55;100.10;;;14.25;;
63693;SDS011;49839;51.798;10.954;2022-11-30T06:47:23;70.50;;;14.30;;
63693;SDS011;49839;51.798;10.954;2022-11-30T06:49:51;122.45;;;12.93;;
63693;SDS011;49839;51.798;10.954;2022-11-30T06:52:19;104.28;;;13.90;;
63693;SDS011;49839;51.798;10.954;2022-11-30T06:54:47;52.13;;;13.25;;
63693;SDS011;49839;51.798;10.954;2022-11-30T06:57:15;34.15;;;12.30;;
63693;SDS011;49839;51.798;10.954;2022-11-30T06:59:42;29.42;;;11.90;;
63693;SDS011;49839;51.798;10.954;2022-11-30T07:02:11;19.63;;;12.17;;
63693;SDS011;49839;51.798;10.954;2022-11-30T07:04:44;17.90;;;11.15;;
63693;SDS011;49839;51.798;10.954;2022-11-30T07:07:12;20.35;;;12.52;;
63693;SDS011;49839;51.798;10.954;2022-11-30T07:09:40;18.00;;;11.18;;
63693;SDS011;49839;51.798;10.954;2022-11-30T07:12:08;20.58;;;12.65;;
63693;SDS011;49839;51.798;10.954;2022-11-30T07:14:35;25.45;;;14.43;;
63693;SDS011;49839;51.798;10.954;2022-11-30T07:17:03;34.60;;;16.02;;
63693;SDS011;49839;51.798;10.954;2022-11-30T07:19:30;32.38;;;15.93;;
63693;SDS011;49839;51.798;10.954;2022-11-30T07:22:00;47.40;;;15.57;;
63693;SDS011;49839;51.798;10.954;2022-11-30T07:24:28;38.05;;;12.60;;
63693;SDS011;49839;51.798;10.954;2022-11-30T07:27:14;79.63;;;12.57;;
63693;SDS011;49839;51.798;10.954;2022-11-30T07:29:41;87.50;;;13.90;;
63693;SDS011;49839;51.798;10.954;2022-11-30T07:32:09;149.73;;;14.90;;
63693;SDS011;49839;51.798;10.954;2022-11-30T07:34:36;44.35;;;14.48;;
63693;SDS011;49839;51.798;10.954;2022-11-30T07:37:05;39.65;;;13.43;;
63693;SDS011;49839;51.798;10.954;2022-11-30T07:39:32;29.08;;;13.63;;
63693;SDS011;49839;51.798;10.954;2022-11-30T07:42:00;27.00;;;13.45;;
63693;SDS011;49839;51.798;10.954;2022-11-30T07:44:28;21.05;;;11.48;;
63693;SDS011;49839;51.798;10.954;2022-11-30T07:46:55;25.73;;;13.23;;
63693;SDS011;49839;51.798;10.954;2022-11-30T07:49:22;21.92;;;13.50;;
63693;SDS011;49839;51.798;10.954;2022-11-30T07:51:50;35.47;;;18.38;;
63693;SDS011;49839;51.798;10.954;2022-11-30T07:54:19;32.53;;;12.95;;
63693;SDS011;49839;51.798;10.954;2022-11-30T07:56:46;23.38;;;13.05;;
63693;SDS011;49839;51.798;10.954;2022-11-30T07:59:14;20.95;;;12.65;;
63693;SDS011;49839;51.798;10.954;2022-11-30T08:01:41;25.85;;;12.00;;
63693;SDS011;49839;51.798;10.954;2022-11-30T08:04:09;19.55;;;11.32;;
63693;SDS011;49839;51.798;10.954;2022-11-30T08:06:39;28.55;;;12.65;;
63693;SDS011;49839;51.798;10.954;2022-11-30T08:09:06;19.98;;;11.57;;
63693;SDS011;49839;51.798;10.954;2022-11-30T08:11:36;20.30;;;11.05;;
63693;SDS011;49839;51.798;10.954;2022-11-30T08:14:04;19.58;;;11.18;;
63693;SDS011;49839;51.798;10.954;2022-11-30T08:16:33;20.70;;;12.73;;
63693;SDS011;49839;51.798;10.954;2022-11-30T08:19:01;17.55;;;11.70;;
63693;SDS011;49839;51.798;10.954;2022-11-30T08:21:29;24.58;;;12.63;;
63693;SDS011;49839;51.798;10.954;2022-11-30T08:23:57;21.10;;;12.30;;
63693;SDS011;49839;51.798;10.954;2022-11-30T08:26:25;17.95;;;11.70;;
63693;SDS011;49839;51.798;10.954;2022-11-30T08:28:55;17.33;;;11.35;;
63693;SDS011;49839;51.798;10.954;2022-11-30T08:31:23;35.45;;;12.52;;
63693;SDS011;49839;51.798;10.954;2022-11-30T08:33:53;30.25;;;13.30;;
63693;SDS011;49839;51.798;10.954;2022-11-30T08:36:21;19.48;;;11.48;;
63693;SDS011;49839;51.798;10.954;2022-11-30T08:38:50;36.53;;;12.23;;
63693;SDS011;49839;51.798;10.954;2022-11-30T08:41:18;61.53;;;13.43;;
63693;SDS011;49839;51.798;10.954;2022-11-30T08:43:46;34.28;;;13.02;;
63693;SDS011;49839;51.798;10.954;2022-11-30T08:46:15;60.88;;;13.75;;
63693;SDS011;49839;51.798;10.954;2022-11-30T08:49:03;124.40;;;14.70;;
63693;SDS011;49839;51.798;10.954;2022-11-30T08:51:47;44.08;;;13.80;;
63693;SDS011;49839;51.798;10.954;2022-11-30T08:54:35;56.47;;;13.93;;
63693;SDS011;49839;51.798;10.954;2022-11-30T08:57:04;80.97;;;15.07;;
63693;SDS011;49839;51.798;10.954;2022-11-30T08:59:31;96.68;;;14.60;;
63693;SDS011;49839;51.798;10.954;2022-11-30T09:02:00;67.15;;;15.68;;
63693;SDS011;49839;51.798;10.954;2022-11-30T09:04:28;74.17;;;15.53;;
63693;SDS011;49839;51.798;10.954;2022-11-30T09:06:55;57.88;;;16.33;;
63693;SDS011;49839;51.798;10.954;2022-11-30T09:09:24;74.67;;;15.57;;
63693;SDS011;49839;51.798;10.954;2022-11-30T09:11:52;76.38;;;14.57;;
63693;SDS011;49839;51.798;10.954;2022-11-30T09:14:19;72.20;;;16.00;;
63693;SDS011;49839;51.798;10.954;2022-11-30T09:16:47;99.68;;;15.13;;
63693;SDS011;49839;51.798;10.954;2022-11-30T09:19:15;31.13;;;13.68;;
63693;SDS011;49839;51.798;10.954;2022-11-30T09:21:43;25.00;;;13.25;;
63693;SDS011;49839;51.798;10.954;2022-11-30T09:24:17;26.95;;;12.82;;
63693;SDS011;49839;51.798;10.954;2022-11-30T09:26:45;69.93;;;13.63;;
63693;SDS011;49839;51.798;10.954;2022-11-30T09:29:13;69.75;;;13.70;;
63693;SDS011;49839;51.798;10.954;2022-11-30T09:31:40;32.58;;;14.27;;
63693;SDS011;49839;51.798;10.954;2022-11-30T09:34:08;40.78;;;13.63;;
63693;SDS011;49839;51.798;10.954;2022-11-30T09:36:38;49.28;;;14.52;;
63693;SDS011;49839;51.798;10.954;2022-11-30T09:39:05;31.73;;;13.65;;
63693;SDS011;49839;51.798;10.954;2022-11-30T09:41:50;38.50;;;13.13;;
63693;SDS011;49839;51.798;10.954;2022-11-30T09:44:23;38.72;;;15.63;;
63693;SDS011;49839;51.798;10.954;2022-11-30T09:46:53;37.22;;;15.52;;
63693;SDS011;49839;51.798;10.954;2022-11-30T09:49:23;21.10;;;12.80;;
63693;SDS011;49839;51.798;10.954;2022-11-30T09:51:56;26.23;;;12.10;;
63693;SDS011;49839;51.798;10.954;2022-11-30T09:54:26;27.85;;;11.63;;
63693;SDS011;49839;51.798;10.954;2022-11-30T09:57:01;31.30;;;13.27;;
63693;SDS011;49839;51.798;10.954;2022-11-30T09:59:30;19.10;;;11.70;;
63693;SDS011;49839;51.798;10.954;2022-11-30T10:02:00;22.45;;;12.13;;
63693;SDS011;49839;51.798;10.954;2022-11-30T10:04:30;21.92;;;13.50;;
63693;SDS011;49839;51.798;10.954;2022-11-30T10:07:01;19.00;;;11.88;;
63693;SDS011;49839;51.798;10.954;2022-11-30T10:09:37;17.45;;;11.30;;
63693;SDS011;49839;51.798;10.954;2022-11-30T10:12:31;20.83;;;12.43;;
63693;SDS011;49839;51.798;10.954;2022-11-30T10:15:04;20.65;;;12.18;;
63693;SDS011;49839;51.798;10.954;2022-11-30T10:17:36;24.77;;;14.02;;
63693;SDS011;49839;51.798;10.954;2022-11-30T10:20:10;32.30;;;13.88;;
63693;SDS011;49839;51.798;10.954;2022-11-30T10:22:46;31.02;;;13.45;;
63693;SDS011;49839;51.798;10.954;2022-11-30T10:25:20;28.80;;;13.52;;
63693;SDS011;49839;51.798;10.954;2022-11-30T10:27:49;48.67;;;12.18;;
63693;SDS011;49839;51.798;10.954;2022-11-30T10:30:17;35.15;;;13.23;;
63693;SDS011;49839;51.798;10.954;2022-11-30T10:32:48;56.15;;;15.00;;
63693;SDS011;49839;51.798;10.954;2022-11-30T10:35:20;63.60;;;14.57;;
63693;SDS011;49839;51.798;10.954;2022-11-30T10:37:49;59.88;;;14.75;;
63693;SDS011;49839;51.798;10.954;2022-11-30T10:40:18;38.05;;;14.13;;
63693;SDS011;49839;51.798;10.954;2022-11-30T10:42:48;43.92;;;15.43;;
63693;SDS011;49839;51.798;10.954;2022-11-30T10:45:19;78.75;;;15.35;;
63693;SDS011;49839;51.798;10.954;2022-11-30T10:47:48;92.03;;;15.30;;
63693;SDS011;49839;51.798;10.954;2022-11-30T10:50:16;44.20;;;15.95;;
63693;SDS011;49839;51.798;10.954;2022-11-30T10:52:45;79.53;;;16.48;;
63693;SDS011;49839;51.798;10.954;2022-11-30T10:55:16;133.73;;;16.02;;
63693;SDS011;49839;51.798;10.954;2022-11-30T10:57:45;76.05;;;14.38;;
63693;SDS011;49839;51.798;10.954;2022-11-30T11:00:13;74.22;;;16.15;;
63693;SDS011;49839;51.798;10.954;2022-11-30T11:02:42;76.80;;;16.17;;
63693;SDS011;49839;51.798;10.954;2022-11-30T11:05:13;78.15;;;16.23;;
63693;SDS011;49839;51.798;10.954;2022-11-30T11:10:11;99.43;;;16.17;;
63693;SDS011;49839;51.798;10.954;2022-11-30T11:12:45;170.02;;;16.60;;
63693;SDS011;49839;51.798;10.954;2022-11-30T11:15:17;136.40;;;15.43;;
63693;SDS011;49839;51.798;10.954;2022-11-30T11:17:44;136.05;;;18.60;;
63693;SDS011;49839;51.798;10.954;2022-11-30T11:20:29;137.48;;;17.77;;
63693;SDS011;49839;51.798;10.954;2022-11-30T11:22:57;81.95;;;18.00;;
63693;SDS011;49839;51.798;10.954;2022-11-30T11:25:26;161.20;;;17.42;;
63693;SDS011;49839;51.798;10.954;2022-11-30T11:27:59;113.95;;;17.70;;
63693;SDS011;49839;51.798;10.954;2022-11-30T11:30:28;201.32;;;17.73;;
63693;SDS011;49839;51.798;10.954;2022-11-30T11:32:57;186.95;;;18.27;;
63693;SDS011;49839;51.798;10.954;2022-11-30T11:35:32;189.30;;;17.83;;
63693;SDS011;49839;51.798;10.954;2022-11-30T11:37:59;144.73;;;19.00;;
63693;SDS011;49839;51.798;10.954;2022-11-30T11:40:27;88.05;;;19.80;;
63693;SDS011;49839;51.798;10.954;2022-11-30T11:42:54;198.15;;;20.75;;
63693;SDS011;49839;51.798;10.954;2022-11-30T11:45:25;184.95;;;20.92;;
63693;SDS011;49839;51.798;10.954;2022-11-30T11:47:57;119.30;;;20.33;;
63693;SDS011;49839;51.798;10.954;2022-11-30T11:50:27;126.03;;;19.88;;
63693;SDS011;49839;51.798;10.954;2022-11-30T11:53:16;99.07;;;20.00;;
63693;SDS011;49839;51.798;10.954;2022-11-30T11:55:51;150.00;;;20.70;;
63693;SDS011;49839;51.798;10.954;2022-11-30T12:00:49;52.13;;;21.33;;
63693;SDS011;49839;51.798;10.954;2022-11-30T12:03:40;66.05;;;21.02;;
63693;SDS011;49839;51.798;10.954;2022-11-30T12:06:08;102.25;;;23.52;;
63693;SDS011;49839;51.798;10.954;2022-11-30T12:08:37;82.57;;;22.70;;
63693;SDS011;49839;51.798;10.954;2022-11-30T12:11:08;106.95;;;24.67;;
63693;SDS011;49839;51.798;10.954;2022-11-30T12:13:40;70.72;;;24.45;;
63693;SDS011;49839;51.798;10.954;2022-11-30T12:16:15;57.97;;;25.45;;
63693;SDS011;49839;51.798;10.954;2022-11-30T12:18:47;50.35;;;24.90;;
63693;SDS011;49839;51.798;10.954;2022-11-30T12:21:19;45.17;;;24.70;;
63693;SDS011;49839;51.798;10.954;2022-11-30T12:23:57;48.70;;;26.77;;
63693;SDS011;49839;51.798;10.954;2022-11-30T12:26:28;46.00;;;22.73;;
63693;SDS011;49839;51.798;10.954;2022-11-30T12:31:29;44.15;;;23.13;;
63693;SDS011;49839;51.798;10.954;2022-11-30T12:34:02;44.95;;;22.85;;
63693;SDS011;49839;51.798;10.954;2022-11-30T12:36:35;42.83;;;23.25;;
63693;SDS011;49839;51.798;10.954;2022-11-30T12:39:09;45.58;;;23.58;;
63693;SDS011;49839;51.798;10.954;2022-11-30T12:41:41;47.80;;;24.98;;
63693;SDS011;49839;51.798;10.954;2022-11-30T12:44:16;44.85;;;23.88;;
63693;SDS011;49839;51.798;10.954;2022-11-30T12:46:50;43.58;;;22.98;;
63693;SDS011;49839;51.798;10.954;2022-11-30T12:49:25;45.85;;;23.95;;
63693;SDS011;49839;51.798;10.954;2022-11-30T12:52:00;41.88;;;22.10;;
63693;SDS011;49839;51.798;10.954;2022-11-30T12:54:29;46.22;;;24.63;;
63693;SDS011;49839;51.798;10.954;2022-11-30T12:57:01;48.67;;;24.58;;
63693;SDS011;49839;51.798;10.954;2022-11-30T12:59:36;43.15;;;23.15;;
63693;SDS011;49839;51.798;10.954;2022-11-30T13:02:14;42.10;;;23.67;;
63693;SDS011;49839;51.798;10.954;2022-11-30T13:04:43;48.72;;;25.58;;
63693;SDS011;49839;51.798;10.954;2022-11-30T13:07:18;50.03;;;25.45;;
63693;SDS011;49839;51.798;10.954;2022-11-30T13:09:49;49.95;;;25.90;;
63693;SDS011;49839;51.798;10.954;2022-11-30T13:12:20;46.50;;;24.35;;
63693;SDS011;49839;51.798;10.954;2022-11-30T13:14:48;48.67;;;24.88;;
63693;SDS011;49839;51.798;10.954;2022-11-30T13:17:18;45.08;;;23.27;;
63693;SDS011;49839;51.798;10.954;2022-11-30T13:19:51;50.30;;;24.60;;
63693;SDS011;49839;51.798;10.954;2022-11-30T13:22:22;49.90;;;26.13;;
63693;SDS011;49839;51.798;10.954;2022-11-30T13:24:52;44.53;;;24.88;;
63693;SDS011;49839;51.798;10.954;2022-11-30T13:27:23;49.45;;;25.15;;
63693;SDS011;49839;51.798;10.954;2022-11-30T13:29:58;50.50;;;24.98;;
63693;SDS011;49839;51.798;10.954;2022-11-30T13:32:33;49.08;;;24.33;;
63693;SDS011;49839;51.798;10.954;2022-11-30T13:35:39;50.05;;;26.35;;
63693;SDS011;49839;51.798;10.954;2022-11-30T13:38:17;50.75;;;26.25;;
63693;SDS011;49839;51.798;10.954;2022-11-30T13:41:03;53.88;;;25.92;;
63693;SDS011;49839;51.798;10.954;2022-11-30T13:43:33;50.75;;;22.45;;
63693;SDS011;49839;51.798;10.954;2022-11-30T13:46:06;59.38;;;25.98;;
63693;SDS011;49839;51.798;10.954;2022-11-30T13:48:41;51.97;;;25.80;;
63693;SDS011;49839;51.798;10.954;2022-11-30T13:51:08;57.17;;;28.52;;
63693;SDS011;49839;51.798;10.954;2022-11-30T13:53:36;53.83;;;28.27;;
63693;SDS011;49839;51.798;10.954;2022-11-30T14:01:38;51.08;;;27.00;;
63693;SDS011;49839;51.798;10.954;2022-11-30T14:06:55;50.53;;;25.77;;
63693;SDS011;49839;51.798;10.954;2022-11-30T14:14:57;49.50;;;25.45;;
63693;SDS011;49839;51.798;10.954;2022-11-30T14:17:26;53.63;;;28.30;;
63693;SDS011;49839;51.798;10.954;2022-11-30T14:19:55;52.97;;;26.92;;
63693;SDS011;49839;51.798;10.954;2022-11-30T14:22:26;50.75;;;27.23;;
63693;SDS011;49839;51.798;10.954;2022-11-30T14:27:22;49.10;;;24.80;;
63693;SDS011;49839;51.798;10.954;2022-11-30T14:29:53;52.63;;;27.80;;
63693;SDS011;49839;51.798;10.954;2022-11-30T14:32:26;52.53;;;27.70;;
63693;SDS011;49839;51.798;10.954;2022-11-30T14:35:00;51.92;;;27.10;;
63693;SDS011;49839;51.798;10.954;2022-11-30T14:37:31;54.67;;;28.02;;
63693;SDS011;49839;51.798;10.954;2022-11-30T14:40:00;51.15;;;26.23;;
63693;SDS011;49839;51.798;10.954;2022-11-30T14:42:29;52.35;;;26.40;;
63693;SDS011;49839;51.798;10.954;2022-11-30T14:44:56;50.70;;;26.05;;
63693;SDS011;49839;51.798;10.954;2022-11-30T14:47:25;53.17;;;28.83;;
63693;SDS011;49839;51.798;10.954;2022-11-30T14:49:53;50.70;;;26.67;;
63693;SDS011;49839;51.798;10.954;2022-11-30T14:52:28;50.13;;;27.75;;